createdAt,value
2022-12-23T00:00:16.226Z,37.25
2022-12-23T00:02:44.445Z,37.41
2022-12-23T00:05:13.499Z,36.94
2022-12-23T00:07:41.393Z,36.78
2022-12-23T00:10:10.471Z,36.83
2022-12-23T00:12:56.035Z,37.37
2022-12-23T00:15:25.280Z,37.25
2022-12-23T00:17:53.123Z,37.20
2022-12-23T00:20:21.222Z,36.89
2022-12-23T00:23:07.545Z,37.32
2022-12-23T00:25:41.717Z,36.96
2022-12-23T00:28:11.712Z,37.00
2022-12-23T00:30:46.158Z,37.42
2022-12-23T00:33:14.103Z,37.06
2022-12-23T00:35:42.080Z,37.41
2022-12-23T00:38:09.963Z,37.41
2022-12-23T00:40:55.099Z,36.85
2022-12-23T00:43:23.023Z,36.93
2022-12-23T00:45:52.673Z,37.20
2022-12-23T00:48:37.983Z,37.28
2022-12-23T00:51:06.608Z,37.53
2022-12-23T00:53:34.816Z,37.35
2022-12-23T00:56:02.700Z,37.49
2022-12-23T00:58:31.919Z,37.46
2022-12-23T01:01:18.674Z,37.05
2022-12-23T01:04:04.052Z,37.60
2022-12-23T01:06:32.024Z,37.19
2022-12-23T01:08:59.929Z,37.13
2022-12-23T01:11:27.795Z,37.50
2022-12-23T01:13:55.949Z,37.35
2022-12-23T01:16:25.238Z,37.13
2022-12-23T01:18:53.159Z,37.27
2022-12-23T01:21:21.098Z,37.26
2022-12-23T01:23:48.989Z,37.36
2022-12-23T01:26:16.863Z,37.20
2022-12-23T01:28:44.756Z,37.51
2022-12-23T01:31:12.788Z,37.08
2022-12-23T01:33:42.458Z,37.66
2022-12-23T01:36:11.462Z,37.46
2022-12-23T01:38:39.372Z,37.14
2022-12-23T01:41:07.267Z,37.23
2022-12-23T01:43:45.405Z,37.65
2022-12-23T01:46:13.424Z,37.49
2022-12-23T01:48:42.787Z,37.12
2022-12-23T01:51:13.040Z,37.26
2022-12-23T01:53:42.024Z,37.34
2022-12-23T01:56:11.612Z,37.20
2022-12-23T01:58:40.447Z,37.15
2022-12-23T02:01:25.952Z,37.36
2022-12-23T02:03:56.804Z,37.37
2022-12-23T02:06:43.504Z,37.54
2022-12-23T02:09:19.461Z,37.22
2022-12-23T02:12:31.448Z,37.67
2022-12-23T02:15:30.398Z,37.15
2022-12-23T02:18:08.541Z,37.35
2022-12-23T02:20:54.944Z,37.34
2022-12-23T02:24:07.678Z,37.29
2022-12-23T02:27:14.743Z,37.58
2022-12-23T02:30:24.994Z,37.18
2022-12-23T02:33:15.133Z,37.69
2022-12-23T02:35:46.338Z,37.39
2022-12-23T02:38:17.523Z,37.38
2022-12-23T02:40:50.915Z,37.67
2022-12-23T02:43:20.513Z,37.17
2022-12-23T02:45:50.826Z,37.44
2022-12-23T02:48:22.498Z,37.71
2022-12-23T02:50:50.367Z,37.14
2022-12-23T02:53:20.361Z,37.45
2022-12-23T02:55:49.030Z,37.57
2022-12-23T02:58:17.707Z,37.40
2022-12-23T03:00:45.599Z,37.34
2022-12-23T03:03:13.621Z,37.41
2022-12-23T03:05:44.025Z,37.52
2022-12-23T03:08:14.079Z,37.53
2022-12-23T03:10:47.381Z,37.47
2022-12-23T03:13:20.133Z,37.56
2022-12-23T03:15:51.808Z,37.63
2022-12-23T03:18:23.722Z,37.49
2022-12-23T03:20:54.133Z,37.74
2022-12-23T03:23:24.522Z,37.70
2022-12-23T03:25:58.580Z,37.26
2022-12-23T03:28:29.727Z,37.55
2022-12-23T03:30:58.411Z,37.26
2022-12-23T03:33:28.417Z,37.87
2022-12-23T03:35:59.247Z,37.21
2022-12-23T03:38:27.115Z,37.17
2022-12-23T03:40:55.654Z,37.17
2022-12-23T03:43:26.791Z,37.71
2022-12-23T03:45:56.458Z,37.24
2022-12-23T03:48:25.084Z,37.29
2022-12-23T03:50:54.156Z,37.40
2022-12-23T03:53:24.758Z,37.40
2022-12-23T03:55:53.907Z,37.30
2022-12-23T03:58:28.077Z,37.45
2022-12-23T04:00:58.778Z,37.63
2022-12-23T04:03:30.106Z,37.47
2022-12-23T04:05:59.272Z,37.29
2022-12-23T04:08:29.678Z,37.23
2022-12-23T04:10:57.831Z,37.46
2022-12-23T04:13:25.708Z,37.51
2022-12-23T04:15:53.680Z,37.27
2022-12-23T04:18:21.598Z,37.26
2022-12-23T04:20:49.512Z,37.51
2022-12-23T04:23:17.372Z,37.20
2022-12-23T04:25:46.905Z,37.47
2022-12-23T04:28:14.798Z,37.52
2022-12-23T04:30:43.868Z,37.42
2022-12-23T04:33:11.857Z,37.33
2022-12-23T04:35:39.815Z,37.51
2022-12-23T04:38:07.733Z,37.11
2022-12-23T04:40:35.610Z,37.08
2022-12-23T04:43:04.871Z,37.39
2022-12-23T04:45:33.621Z,37.14
2022-12-23T04:48:01.461Z,37.63
2022-12-23T04:50:29.335Z,37.31
2022-12-23T04:52:57.196Z,37.42
2022-12-23T04:55:25.324Z,37.37
2022-12-23T04:57:53.260Z,37.34
2022-12-23T05:00:23.223Z,37.39
2022-12-23T05:02:51.156Z,37.56
2022-12-23T05:05:19.444Z,37.14
2022-12-23T05:07:49.928Z,37.27
2022-12-23T05:10:17.955Z,37.36
2022-12-23T05:12:45.882Z,37.35
2022-12-23T05:15:14.025Z,37.03
2022-12-23T05:17:43.300Z,37.15
2022-12-23T05:20:11.855Z,37.07
2022-12-23T05:22:39.741Z,37.32
2022-12-23T05:25:09.049Z,37.59
2022-12-23T05:27:37.252Z,37.15
2022-12-23T05:30:05.842Z,37.53
2022-12-23T05:32:33.743Z,37.41
2022-12-23T05:35:03.329Z,37.02
2022-12-23T05:37:31.210Z,37.25
2022-12-23T05:39:59.072Z,36.97
2022-12-23T05:42:27.152Z,36.96
2022-12-23T05:44:55.071Z,36.99
2022-12-23T05:47:22.921Z,37.30
2022-12-23T05:49:50.826Z,37.29
2022-12-23T05:52:20.079Z,37.48
2022-12-23T05:54:48.226Z,37.20
2022-12-23T05:57:16.102Z,37.33
2022-12-23T05:59:44.012Z,37.50
2022-12-23T06:02:12.036Z,37.25
2022-12-23T06:04:40.369Z,37.13
2022-12-23T06:07:08.315Z,37.38
2022-12-23T06:09:37.545Z,37.49
2022-12-23T06:12:05.863Z,36.94
2022-12-23T06:14:33.733Z,36.91
2022-12-23T06:17:01.668Z,37.24
2022-12-23T06:19:29.616Z,36.88
2022-12-23T06:21:57.504Z,37.09
2022-12-23T06:24:25.661Z,36.88
2022-12-23T06:26:57.310Z,36.90
2022-12-23T06:29:25.572Z,37.02
2022-12-23T06:31:53.531Z,37.39
2022-12-23T06:34:21.818Z,37.32
2022-12-23T06:36:49.724Z,36.92
2022-12-23T06:39:17.630Z,37.21
2022-12-23T06:41:45.543Z,36.95
2022-12-23T06:44:15.088Z,37.36
2022-12-23T06:46:42.921Z,37.20
2022-12-23T06:49:13.391Z,37.09
2022-12-23T06:51:41.759Z,37.35
2022-12-23T06:54:10.930Z,37.19
2022-12-23T06:56:38.901Z,36.80
2022-12-23T06:59:06.811Z,36.91
2022-12-23T07:01:36.199Z,37.30
2022-12-23T07:04:04.567Z,37.23
2022-12-23T07:06:32.449Z,36.70
2022-12-23T07:09:00.524Z,36.92
2022-12-23T07:11:28.415Z,37.21
2022-12-23T07:13:56.785Z,37.02
2022-12-23T07:16:24.795Z,36.76
2022-12-23T07:18:54.087Z,37.00
2022-12-23T07:21:28.889Z,36.91
2022-12-23T07:23:57.479Z,36.71
2022-12-23T07:26:25.432Z,36.97
2022-12-23T07:28:53.325Z,37.29
2022-12-23T07:31:21.323Z,37.12
2022-12-23T07:33:49.610Z,37.21
2022-12-23T07:36:18.930Z,37.08
2022-12-23T07:38:47.018Z,36.85
2022-12-23T07:41:14.907Z,36.65
2022-12-23T07:43:43.084Z,36.66
2022-12-23T07:46:11.060Z,36.76
2022-12-23T07:48:39.003Z,36.60
2022-12-23T07:51:07.107Z,37.08
2022-12-23T07:53:36.859Z,36.66
2022-12-23T07:56:05.240Z,36.64
2022-12-23T07:58:33.169Z,37.05
2022-12-23T08:01:02.443Z,36.66
2022-12-23T08:03:30.545Z,36.76
2022-12-23T08:06:02.659Z,36.88
2022-12-23T08:08:30.646Z,36.90
2022-12-23T08:11:01.298Z,36.54
2022-12-23T08:13:29.271Z,37.01
2022-12-23T08:15:57.861Z,36.87
2022-12-23T08:18:25.754Z,36.92
2022-12-23T08:20:57.263Z,36.64
2022-12-23T08:23:25.682Z,37.01
2022-12-23T08:26:01.653Z,37.14
2022-12-23T08:28:30.085Z,37.00
2022-12-23T08:31:04.740Z,36.72
2022-12-23T08:33:32.692Z,36.64
2022-12-23T08:36:00.606Z,36.79
2022-12-23T08:38:28.503Z,36.94
2022-12-23T08:40:56.374Z,36.43
2022-12-23T08:43:30.239Z,36.81
2022-12-23T08:46:01.685Z,36.95
2022-12-23T08:48:29.655Z,36.84
2022-12-23T08:50:57.586Z,36.66
2022-12-23T08:53:25.517Z,36.82
2022-12-23T08:55:53.664Z,36.76
2022-12-23T08:58:21.552Z,36.48
2022-12-23T09:00:50.855Z,36.51
2022-12-23T09:03:18.838Z,36.49
2022-12-23T09:05:47.284Z,36.88
2022-12-23T09:08:15.196Z,36.78
2022-12-23T09:10:43.604Z,36.80
2022-12-23T09:13:16.252Z,36.97
2022-12-23T09:15:48.297Z,36.42
2022-12-23T09:18:17.574Z,36.42
2022-12-23T09:20:45.449Z,36.40
2022-12-23T09:23:13.361Z,36.69
2022-12-23T09:25:42.016Z,36.40
2022-12-23T09:28:10.500Z,36.40
2022-12-23T09:30:38.421Z,36.34
2022-12-23T09:33:06.313Z,36.73
2022-12-23T09:35:35.866Z,36.75
2022-12-23T09:38:03.789Z,36.46
2022-12-23T09:40:33.182Z,36.41
2022-12-23T09:43:06.343Z,36.58
2022-12-23T09:45:46.042Z,36.47
2022-12-23T09:48:15.964Z,36.38
2022-12-23T09:50:45.616Z,36.53
2022-12-23T09:53:14.904Z,36.69
2022-12-23T09:55:47.283Z,36.63
2022-12-23T09:58:21.011Z,36.18
2022-12-23T10:00:55.073Z,36.27
2022-12-23T10:03:25.363Z,36.18
2022-12-23T10:06:01.152Z,36.15
2022-12-23T10:08:31.461Z,36.25
2022-12-23T10:11:01.312Z,36.71
2022-12-23T10:13:30.622Z,36.49
2022-12-23T10:15:59.997Z,36.58
2022-12-23T10:18:34.570Z,36.26
2022-12-23T10:21:05.415Z,36.82
2022-12-23T10:23:34.382Z,36.50
2022-12-23T10:26:02.269Z,36.21
2022-12-23T10:28:30.263Z,36.36
2022-12-23T10:33:56.079Z,36.43
2022-12-23T10:36:30.548Z,36.36
2022-12-23T10:39:01.895Z,36.24
2022-12-23T10:41:34.623Z,36.74
2022-12-23T10:44:23.177Z,36.20
2022-12-23T10:46:54.085Z,36.26
2022-12-23T10:49:24.910Z,36.23
2022-12-23T10:51:56.020Z,36.44
2022-12-23T10:54:24.988Z,36.14
2022-12-23T10:56:52.821Z,36.09
2022-12-23T10:59:23.123Z,36.25
2022-12-23T11:01:52.748Z,36.33
2022-12-23T11:04:21.503Z,36.40
2022-12-23T11:07:10.582Z,36.36
2022-12-23T11:09:41.849Z,36.55
2022-12-23T11:12:10.627Z,36.35
2022-12-23T11:14:40.020Z,36.06
2022-12-23T11:17:20.279Z,36.29
2022-12-23T11:19:48.195Z,35.99
2022-12-23T11:22:23.681Z,36.04
2022-12-23T11:24:53.238Z,36.66
2022-12-23T11:27:21.152Z,36.40
2022-12-23T11:29:50.366Z,36.21
2022-12-23T11:32:19.808Z,36.41
2022-12-23T11:34:48.063Z,36.54
2022-12-23T11:37:25.991Z,36.31
2022-12-23T11:39:55.291Z,36.30
2022-12-23T11:42:27.252Z,36.17
2022-12-23T11:44:56.025Z,36.33
2022-12-23T11:47:30.779Z,36.37
2022-12-23T11:49:59.225Z,36.49
2022-12-23T11:52:27.570Z,36.40
2022-12-23T11:54:57.998Z,36.23
2022-12-23T11:57:31.928Z,36.16
2022-12-23T12:00:01.493Z,36.55
2022-12-23T12:02:33.471Z,36.29
2022-12-23T12:05:03.299Z,36.29
2022-12-23T12:07:31.595Z,36.32
2022-12-23T12:10:01.391Z,36.36
2022-12-23T12:12:29.384Z,36.23
2022-12-23T12:14:58.519Z,36.38
2022-12-23T12:17:28.406Z,36.17
2022-12-23T12:20:00.341Z,36.28
2022-12-23T12:22:32.454Z,36.29
2022-12-23T12:25:02.800Z,36.36
2022-12-23T12:27:34.811Z,36.03
2022-12-23T12:30:08.389Z,36.03
2022-12-23T12:32:42.113Z,36.49
2022-12-23T12:35:13.851Z,36.51
2022-12-23T12:37:44.181Z,36.08
2022-12-23T12:40:19.384Z,36.20
2022-12-23T12:42:49.136Z,36.46
2022-12-23T12:45:19.094Z,36.53
2022-12-23T12:47:54.945Z,36.13
2022-12-23T12:50:27.884Z,36.46
2022-12-23T12:52:56.504Z,36.08
2022-12-23T12:55:29.602Z,36.29
2022-12-23T12:57:57.646Z,35.87
2022-12-23T13:00:25.680Z,36.02
2022-12-23T13:03:09.077Z,36.00
2022-12-23T13:05:54.110Z,36.17
2022-12-23T13:08:32.395Z,36.28
2022-12-23T13:11:04.206Z,36.39
2022-12-23T13:13:37.249Z,36.03
2022-12-23T13:16:09.159Z,36.09
2022-12-23T13:18:40.342Z,36.23
2022-12-23T13:21:12.261Z,36.16
2022-12-23T13:23:44.667Z,36.22
2022-12-23T13:26:23.016Z,35.87
2022-12-23T13:28:55.530Z,35.92
2022-12-23T13:31:29.484Z,36.11
2022-12-23T13:33:59.226Z,36.17
2022-12-23T13:36:37.422Z,36.47
2022-12-23T13:39:18.497Z,36.35
2022-12-23T13:41:48.548Z,36.10
2022-12-23T13:44:18.656Z,36.42
2022-12-23T13:46:51.684Z,36.16
2022-12-23T13:49:25.828Z,35.87
2022-12-23T13:51:56.510Z,36.34
2022-12-23T13:54:29.105Z,35.82
2022-12-23T13:57:08.020Z,35.96
2022-12-23T13:59:39.564Z,36.31
2022-12-23T14:02:44.665Z,36.51
2022-12-23T14:05:36.052Z,36.33
2022-12-23T14:08:06.649Z,35.99
2022-12-23T14:10:34.656Z,36.11
2022-12-23T14:13:08.484Z,36.36
2022-12-23T14:15:59.659Z,36.13
2022-12-23T14:19:04.773Z,36.29
2022-12-23T14:21:39.063Z,36.48
2022-12-23T14:24:42.888Z,36.54
2022-12-23T14:27:38.386Z,36.22
2022-12-23T14:30:12.704Z,36.24
2022-12-23T14:32:44.301Z,36.56
2022-12-23T14:35:29.218Z,36.46
2022-12-23T14:38:10.258Z,36.57
2022-12-23T14:41:23.904Z,36.40
2022-12-23T14:44:02.662Z,36.53
2022-12-23T14:46:55.309Z,36.73
2022-12-23T14:49:43.040Z,36.37
2022-12-23T14:52:44.834Z,36.32
2022-12-23T14:55:44.967Z,36.25
2022-12-23T14:58:35.363Z,36.79
2022-12-23T15:01:04.671Z,36.58
2022-12-23T15:03:35.985Z,36.59
2022-12-23T15:06:05.931Z,36.57
2022-12-23T15:08:35.019Z,36.28
2022-12-23T15:11:02.957Z,36.35
2022-12-23T15:13:30.849Z,36.28
2022-12-23T15:16:01.718Z,36.53
2022-12-23T15:18:30.342Z,36.27
2022-12-23T15:21:03.929Z,36.71
2022-12-23T15:23:33.304Z,36.72
2022-12-23T15:26:01.293Z,36.50
2022-12-23T15:28:36.191Z,36.41
2022-12-23T15:31:05.026Z,36.22
2022-12-23T15:36:28.478Z,36.64
2022-12-23T15:38:56.411Z,36.38
2022-12-23T15:41:24.295Z,36.25
2022-12-23T15:43:52.601Z,36.22
2022-12-23T15:46:28.650Z,36.17
2022-12-23T15:48:57.936Z,36.26
2022-12-23T15:52:05.209Z,36.26
2022-12-23T15:54:22.298Z,36.41
2022-12-23T15:56:51.135Z,36.23
2022-12-23T15:59:22.724Z,36.45
2022-12-23T16:01:51.070Z,36.41
2022-12-23T16:04:20.896Z,36.50
2022-12-23T16:06:51.131Z,36.16
2022-12-23T16:09:33.173Z,36.67
2022-12-23T16:12:02.304Z,36.39
2022-12-23T16:14:35.874Z,36.44
2022-12-23T16:17:15.222Z,36.20
2022-12-23T16:19:44.861Z,36.42
2022-12-23T16:22:29.149Z,36.38
2022-12-23T16:25:03.084Z,36.49
2022-12-23T16:27:36.184Z,36.62
2022-12-23T16:30:10.587Z,36.44
2022-12-23T16:32:45.531Z,36.72
2022-12-23T16:35:14.171Z,36.33
2022-12-23T16:37:46.103Z,36.55
2022-12-23T16:40:19.543Z,36.50
2022-12-23T16:42:47.422Z,36.41
2022-12-23T16:45:16.263Z,36.30
2022-12-23T16:47:44.161Z,36.48
2022-12-23T16:50:13.193Z,36.44
2022-12-23T16:52:41.161Z,36.71
2022-12-23T16:55:18.435Z,36.45
2022-12-23T16:57:46.809Z,36.61
2022-12-23T17:00:16.328Z,36.36
2022-12-23T17:02:44.382Z,36.37
2022-12-23T17:05:16.380Z,36.42
2022-12-23T17:07:45.610Z,36.64
2022-12-23T17:10:16.220Z,36.50
2022-12-23T17:12:44.330Z,36.51
2022-12-23T17:15:17.128Z,36.56
2022-12-23T17:17:45.113Z,36.57
2022-12-23T17:20:13.695Z,36.50
2022-12-23T17:22:41.669Z,36.74
2022-12-23T17:25:11.469Z,36.29
2022-12-23T17:27:41.097Z,36.26
2022-12-23T17:30:15.093Z,36.26
2022-12-23T17:32:42.994Z,36.42
2022-12-23T17:35:14.967Z,36.36
2022-12-23T17:37:43.523Z,36.66
2022-12-23T17:40:12.927Z,36.45
2022-12-23T17:42:42.219Z,36.34
2022-12-23T17:45:21.651Z,36.65
2022-12-23T17:47:49.694Z,36.25
2022-12-23T17:50:18.117Z,36.56
2022-12-23T17:52:46.211Z,36.43
2022-12-23T17:55:17.835Z,36.37
2022-12-23T17:57:47.254Z,36.45
2022-12-23T18:00:25.123Z,36.67
2022-12-23T18:02:57.663Z,36.45
2022-12-23T18:05:26.864Z,36.66
2022-12-23T18:07:55.424Z,36.64
2022-12-23T18:10:25.424Z,36.74
2022-12-23T18:12:56.046Z,36.34
2022-12-23T18:15:24.896Z,36.52
2022-12-23T18:17:53.062Z,36.66
2022-12-23T18:20:23.047Z,36.12
2022-12-23T18:22:52.643Z,36.50
2022-12-23T18:25:21.741Z,36.74
2022-12-23T18:27:49.705Z,36.63
2022-12-23T18:30:19.557Z,36.22
2022-12-23T18:32:47.452Z,36.61
2022-12-23T18:35:33.262Z,36.07
2022-12-23T18:38:01.202Z,36.43
2022-12-23T18:40:32.968Z,36.42
2022-12-23T18:43:01.380Z,36.30
2022-12-23T18:45:36.954Z,36.08
2022-12-23T18:48:05.880Z,36.38
2022-12-23T18:50:34.408Z,36.14
2022-12-23T18:53:02.306Z,36.32
2022-12-23T18:55:30.871Z,36.38
2022-12-23T18:57:59.004Z,36.38
2022-12-23T19:00:28.238Z,36.67
2022-12-23T19:02:57.651Z,36.15
2022-12-23T19:05:26.649Z,35.97
2022-12-23T19:07:56.092Z,36.55
2022-12-23T19:10:25.376Z,36.34
2022-12-23T19:12:53.549Z,36.37
2022-12-23T19:15:21.668Z,36.66
2022-12-23T19:17:50.324Z,36.36
2022-12-23T19:20:19.921Z,36.13
2022-12-23T19:22:48.073Z,36.26
2022-12-23T19:25:16.962Z,36.12
2022-12-23T19:27:44.909Z,36.08
2022-12-23T19:30:14.387Z,36.41
2022-12-23T19:32:42.335Z,36.57
2022-12-23T19:35:12.339Z,36.13
2022-12-23T19:37:41.567Z,36.27
2022-12-23T19:40:10.861Z,36.50
2022-12-23T19:42:38.962Z,35.95
2022-12-23T19:45:09.229Z,36.37
2022-12-23T19:47:37.209Z,36.21
2022-12-23T19:50:06.071Z,36.24
2022-12-23T19:52:33.981Z,36.25
2022-12-23T19:55:03.379Z,36.30
2022-12-23T19:57:31.544Z,36.02
2022-12-23T19:59:59.706Z,36.07
2022-12-23T20:02:27.730Z,36.45
2022-12-23T20:04:55.713Z,36.05
2022-12-23T20:07:23.593Z,36.00
2022-12-23T20:09:51.779Z,36.40
2022-12-23T20:12:21.043Z,36.38
2022-12-23T20:14:48.940Z,36.60
2022-12-23T20:17:16.844Z,35.93
2022-12-23T20:19:46.280Z,36.01
2022-12-23T20:22:14.414Z,36.14
2022-12-23T20:24:42.307Z,36.50
2022-12-23T20:27:12.545Z,36.03
2022-12-23T20:29:43.577Z,36.36
2022-12-23T20:32:11.653Z,36.27
2022-12-23T20:34:40.309Z,36.37
2022-12-23T20:37:08.424Z,36.27
2022-12-23T20:39:36.561Z,36.31
2022-12-23T20:42:05.295Z,36.04
2022-12-23T20:44:35.769Z,36.13
2022-12-23T20:47:06.095Z,36.10
2022-12-23T20:49:34.506Z,36.08
2022-12-23T20:52:02.504Z,36.22
2022-12-23T20:54:33.758Z,36.26
2022-12-23T20:57:02.085Z,35.82
2022-12-23T20:59:29.966Z,36.40
2022-12-23T21:01:59.127Z,36.29
2022-12-23T21:04:28.779Z,36.50
2022-12-23T21:06:56.654Z,36.03
2022-12-23T21:09:24.525Z,36.21
2022-12-23T21:11:52.743Z,36.45
2022-12-23T21:14:20.593Z,36.16
2022-12-23T21:16:48.575Z,36.30
2022-12-23T21:19:17.462Z,36.08
2022-12-23T21:21:46.769Z,36.37
2022-12-23T21:24:14.832Z,36.24
2022-12-23T21:26:42.841Z,36.06
2022-12-23T21:29:11.267Z,36.01
2022-12-23T21:31:40.894Z,36.19
2022-12-23T21:34:08.964Z,36.13
2022-12-23T21:36:38.547Z,36.41
2022-12-23T21:39:07.931Z,36.24
2022-12-23T21:41:37.188Z,35.98
2022-12-23T21:44:05.461Z,36.04
2022-12-23T21:46:33.396Z,35.97
2022-12-23T21:49:01.353Z,36.04
2022-12-23T21:51:36.913Z,36.35
2022-12-23T21:54:09.393Z,35.94
2022-12-23T21:56:37.403Z,35.91
2022-12-23T21:59:06.659Z,35.93
2022-12-23T22:01:35.221Z,36.16
2022-12-23T22:04:03.322Z,36.36
2022-12-23T22:06:32.026Z,35.87
2022-12-23T22:08:59.994Z,36.38
2022-12-23T22:11:30.200Z,35.99
2022-12-23T22:13:58.126Z,36.23
2022-12-23T22:16:26.954Z,35.93
2022-12-23T22:18:55.109Z,36.28
2022-12-23T22:21:23.928Z,35.75
2022-12-23T22:23:52.213Z,35.92
2022-12-23T22:26:25.226Z,36.30
2022-12-23T22:28:55.603Z,36.40
2022-12-23T22:31:28.504Z,36.02
2022-12-23T22:33:56.454Z,35.97
2022-12-23T22:36:24.424Z,36.39
2022-12-23T22:38:52.827Z,36.27
2022-12-23T22:41:20.841Z,36.12
2022-12-23T22:43:48.812Z,36.22
2022-12-23T22:46:18.455Z,36.18
2022-12-23T22:48:46.698Z,36.25
2022-12-23T22:51:15.765Z,35.99
2022-12-23T22:53:43.636Z,36.30
2022-12-23T22:56:11.928Z,36.25
2022-12-23T22:58:39.809Z,36.26
2022-12-23T23:01:07.812Z,35.81
2022-12-23T23:03:37.062Z,36.35
2022-12-23T23:06:05.930Z,36.21
2022-12-23T23:08:34.129Z,36.16
2022-12-23T23:11:03.777Z,35.83
2022-12-23T23:13:32.565Z,36.10
2022-12-23T23:16:00.689Z,35.82
2022-12-23T23:18:28.767Z,36.12
2022-12-23T23:20:58.353Z,35.87
2022-12-23T23:23:26.247Z,35.94
2022-12-23T23:25:54.114Z,35.72
2022-12-23T23:28:22.089Z,35.77
2022-12-23T23:30:59.057Z,36.13
2022-12-23T23:33:37.879Z,36.11
2022-12-23T23:36:08.382Z,36.49
2022-12-23T23:38:36.358Z,35.95
2022-12-23T23:41:04.423Z,36.00
2022-12-23T23:43:32.330Z,35.93
2022-12-23T23:46:00.280Z,36.09
2022-12-23T23:48:28.285Z,36.37
2022-12-23T23:51:04.092Z,35.84
2022-12-23T23:53:33.392Z,36.37
2022-12-23T23:56:05.515Z,35.80
2022-12-23T23:58:33.480Z,35.92
